sensor_id;sensor_type;location;lat;lon;timestamp;P1;durP1;ratioP1;P2;durP2;ratioP2
80115;SDS011;69423;47.608;19.366;2024-03-08T00:00:29;29.60;;;28.33;;
80115;SDS011;69423;47.608;19.366;2024-03-08T00:01:02;29.23;;;27.83;;
80115;SDS011;69423;47.608;19.366;2024-03-08T00:01:33;30.03;;;28.17;;
80115;SDS011;69423;47.608;19.366;2024-03-08T00:02:04;29.83;;;27.90;;
80115;SDS011;69423;47.608;19.366;2024-03-08T00:02:36;30.57;;;28.57;;
80115;SDS011;69423;47.608;19.366;2024-03-08T00:03:07;31.53;;;29.13;;
80115;SDS011;69423;47.608;19.366;2024-03-08T00:03:40;31.03;;;28.67;;
80115;SDS011;69423;47.608;19.366;2024-03-08T00:04:11;31.00;;;29.13;;
80115;SDS011;69423;47.608;19.366;2024-03-08T00:04:42;31.37;;;29.63;;
80115;SDS011;69423;47.608;19.366;2024-03-08T00:05:15;32.47;;;30.50;;
80115;SDS011;69423;47.608;19.366;2024-03-08T00:05:46;33.07;;;30.97;;
80115;SDS011;69423;47.608;19.366;2024-03-08T00:06:17;32.13;;;30.27;;
80115;SDS011;69423;47.608;19.366;2024-03-08T00:06:48;30.30;;;28.90;;
80115;SDS011;69423;47.608;19.366;2024-03-08T00:07:19;31.40;;;29.80;;
80115;SDS011;69423;47.608;19.366;2024-03-08T00:07:50;33.10;;;30.90;;
80115;SDS011;69423;47.608;19.366;2024-03-08T00:08:21;32.13;;;30.23;;
80115;SDS011;69423;47.608;19.366;2024-03-08T00:08:52;31.40;;;29.67;;
80115;SDS011;69423;47.608;19.366;2024-03-08T00:09:23;31.73;;;29.57;;
80115;SDS011;69423;47.608;19.366;2024-03-08T00:09:54;32.20;;;29.83;;
80115;SDS011;69423;47.608;19.366;2024-03-08T00:10:25;32.43;;;29.87;;
80115;SDS011;69423;47.608;19.366;2024-03-08T00:10:59;30.57;;;28.57;;
80115;SDS011;69423;47.608;19.366;2024-03-08T00:11:30;30.90;;;28.90;;
80115;SDS011;69423;47.608;19.366;2024-03-08T00:12:01;31.87;;;29.67;;
80115;SDS011;69423;47.608;19.366;2024-03-08T00:12:32;31.43;;;29.23;;
80115;SDS011;69423;47.608;19.366;2024-03-08T00:13:03;30.77;;;28.93;;
80115;SDS011;69423;47.608;19.366;2024-03-08T00:13:34;31.13;;;29.27;;
80115;SDS011;69423;47.608;19.366;2024-03-08T00:14:05;30.27;;;28.47;;
80115;SDS011;69423;47.608;19.366;2024-03-08T00:14:37;32.63;;;30.27;;
80115;SDS011;69423;47.608;19.366;2024-03-08T00:15:11;31.73;;;29.57;;
80115;SDS011;69423;47.608;19.366;2024-03-08T00:15:44;32.03;;;29.53;;
80115;SDS011;69423;47.608;19.366;2024-03-08T00:16:16;31.80;;;29.67;;
80115;SDS011;69423;47.608;19.366;2024-03-08T00:16:47;32.90;;;30.60;;
80115;SDS011;69423;47.608;19.366;2024-03-08T00:17:18;31.37;;;29.47;;
80115;SDS011;69423;47.608;19.366;2024-03-08T00:17:49;31.80;;;29.50;;
80115;SDS011;69423;47.608;19.366;2024-03-08T00:18:20;31.07;;;29.17;;
80115;SDS011;69423;47.608;19.366;2024-03-08T00:18:51;30.50;;;28.77;;
80115;SDS011;69423;47.608;19.366;2024-03-08T00:19:22;30.60;;;28.77;;
80115;SDS011;69423;47.608;19.366;2024-03-08T00:19:53;31.17;;;29.47;;
80115;SDS011;69423;47.608;19.366;2024-03-08T00:20:25;31.43;;;29.70;;
80115;SDS011;69423;47.608;19.366;2024-03-08T00:20:56;31.37;;;29.57;;
80115;SDS011;69423;47.608;19.366;2024-03-08T00:21:27;30.70;;;28.87;;
80115;SDS011;69423;47.608;19.366;2024-03-08T00:21:58;30.23;;;28.60;;
80115;SDS011;69423;47.608;19.366;2024-03-08T00:22:29;30.50;;;28.87;;
80115;SDS011;69423;47.608;19.366;2024-03-08T00:23:01;29.67;;;27.97;;
80115;SDS011;69423;47.608;19.366;2024-03-08T00:23:32;29.83;;;28.17;;
80115;SDS011;69423;47.608;19.366;2024-03-08T00:24:03;29.73;;;28.13;;
80115;SDS011;69423;47.608;19.366;2024-03-08T00:24:35;29.50;;;28.17;;
80115;SDS011;69423;47.608;19.366;2024-03-08T00:25:06;30.70;;;29.13;;
80115;SDS011;69423;47.608;19.366;2024-03-08T00:25:41;32.33;;;30.30;;
80115;SDS011;69423;47.608;19.366;2024-03-08T00:26:12;32.73;;;30.33;;
80115;SDS011;69423;47.608;19.366;2024-03-08T00:26:43;32.87;;;30.47;;
80115;SDS011;69423;47.608;19.366;2024-03-08T00:27:14;31.03;;;29.00;;
80115;SDS011;69423;47.608;19.366;2024-03-08T00:27:46;30.97;;;29.20;;
80115;SDS011;69423;47.608;19.366;2024-03-08T00:28:20;30.47;;;28.70;;
80115;SDS011;69423;47.608;19.366;2024-03-08T00:28:51;31.03;;;29.23;;
80115;SDS011;69423;47.608;19.366;2024-03-08T00:29:22;31.57;;;29.67;;
80115;SDS011;69423;47.608;19.366;2024-03-08T00:29:53;31.63;;;29.70;;
80115;SDS011;69423;47.608;19.366;2024-03-08T00:30:24;31.27;;;29.67;;
80115;SDS011;69423;47.608;19.366;2024-03-08T00:30:55;30.87;;;29.30;;
80115;SDS011;69423;47.608;19.366;2024-03-08T00:31:26;31.70;;;29.87;;
80115;SDS011;69423;47.608;19.366;2024-03-08T00:31:58;32.57;;;30.57;;
80115;SDS011;69423;47.608;19.366;2024-03-08T00:32:29;31.17;;;29.57;;
80115;SDS011;69423;47.608;19.366;2024-03-08T00:33:02;30.80;;;28.97;;
80115;SDS011;69423;47.608;19.366;2024-03-08T00:33:33;30.57;;;28.87;;
80115;SDS011;69423;47.608;19.366;2024-03-08T00:34:04;31.30;;;29.40;;
80115;SDS011;69423;47.608;19.366;2024-03-08T00:34:35;31.17;;;29.13;;
80115;SDS011;69423;47.608;19.366;2024-03-08T00:35:07;31.90;;;29.77;;
80115;SDS011;69423;47.608;19.366;2024-03-08T00:35:38;30.93;;;29.07;;
80115;SDS011;69423;47.608;19.366;2024-03-08T00:36:09;30.23;;;28.57;;
80115;SDS011;69423;47.608;19.366;2024-03-08T00:36:40;31.87;;;29.63;;
80115;SDS011;69423;47.608;19.366;2024-03-08T00:37:11;33.03;;;30.47;;
80115;SDS011;69423;47.608;19.366;2024-03-08T00:37:42;31.13;;;29.00;;
80115;SDS011;69423;47.608;19.366;2024-03-08T00:38:17;31.90;;;29.83;;
80115;SDS011;69423;47.608;19.366;2024-03-08T00:38:49;32.20;;;30.37;;
80115;SDS011;69423;47.608;19.366;2024-03-08T00:39:20;32.07;;;30.07;;
80115;SDS011;69423;47.608;19.366;2024-03-08T00:39:51;31.80;;;29.80;;
80115;SDS011;69423;47.608;19.366;2024-03-08T00:40:23;32.67;;;30.67;;
80115;SDS011;69423;47.608;19.366;2024-03-08T00:40:54;32.50;;;30.37;;
80115;SDS011;69423;47.608;19.366;2024-03-08T00:41:27;33.03;;;30.90;;
80115;SDS011;69423;47.608;19.366;2024-03-08T00:41:59;31.27;;;29.60;;
80115;SDS011;69423;47.608;19.366;2024-03-08T00:42:30;31.93;;;30.27;;
80115;SDS011;69423;47.608;19.366;2024-03-08T00:43:01;32.27;;;30.60;;
80115;SDS011;69423;47.608;19.366;2024-03-08T00:43:34;31.57;;;29.87;;
80115;SDS011;69423;47.608;19.366;2024-03-08T00:44:05;31.20;;;29.70;;
80115;SDS011;69423;47.608;19.366;2024-03-08T00:44:36;31.10;;;29.23;;
80115;SDS011;69423;47.608;19.366;2024-03-08T00:45:08;33.43;;;30.83;;
80115;SDS011;69423;47.608;19.366;2024-03-08T00:45:40;33.83;;;31.43;;
80115;SDS011;69423;47.608;19.366;2024-03-08T00:46:13;32.77;;;30.77;;
80115;SDS011;69423;47.608;19.366;2024-03-08T00:46:45;31.30;;;29.40;;
80115;SDS011;69423;47.608;19.366;2024-03-08T00:47:16;32.50;;;30.17;;
80115;SDS011;69423;47.608;19.366;2024-03-08T00:47:48;33.53;;;30.87;;
80115;SDS011;69423;47.608;19.366;2024-03-08T00:48:19;32.80;;;30.77;;
80115;SDS011;69423;47.608;19.366;2024-03-08T00:48:50;31.57;;;29.83;;
80115;SDS011;69423;47.608;19.366;2024-03-08T00:49:21;32.80;;;30.97;;
80115;SDS011;69423;47.608;19.366;2024-03-08T00:49:53;32.93;;;30.73;;
80115;SDS011;69423;47.608;19.366;2024-03-08T00:50:27;33.10;;;30.60;;
80115;SDS011;69423;47.608;19.366;2024-03-08T00:50:58;33.70;;;31.23;;
80115;SDS011;69423;47.608;19.366;2024-03-08T00:51:29;32.57;;;30.57;;
80115;SDS011;69423;47.608;19.366;2024-03-08T00:52:00;32.47;;;30.27;;
80115;SDS011;69423;47.608;19.366;2024-03-08T00:52:31;32.33;;;30.03;;
80115;SDS011;69423;47.608;19.366;2024-03-08T00:53:02;31.90;;;29.93;;
80115;SDS011;69423;47.608;19.366;2024-03-08T00:53:35;32.40;;;30.03;;
80115;SDS011;69423;47.608;19.366;2024-03-08T00:54:06;32.57;;;30.20;;
80115;SDS011;69423;47.608;19.366;2024-03-08T00:54:37;31.87;;;29.73;;
80115;SDS011;69423;47.608;19.366;2024-03-08T00:55:08;31.73;;;29.57;;
80115;SDS011;69423;47.608;19.366;2024-03-08T00:55:41;32.07;;;30.30;;
80115;SDS011;69423;47.608;19.366;2024-03-08T00:56:12;32.70;;;31.00;;
80115;SDS011;69423;47.608;19.366;2024-03-08T00:56:43;32.13;;;30.23;;
80115;SDS011;69423;47.608;19.366;2024-03-08T00:57:14;33.23;;;31.30;;
80115;SDS011;69423;47.608;19.366;2024-03-08T00:57:45;32.80;;;30.60;;
80115;SDS011;69423;47.608;19.366;2024-03-08T00:58:16;33.73;;;31.43;;
80115;SDS011;69423;47.608;19.366;2024-03-08T00:58:47;33.73;;;31.63;;
80115;SDS011;69423;47.608;19.366;2024-03-08T00:59:18;32.27;;;30.40;;
80115;SDS011;69423;47.608;19.366;2024-03-08T00:59:49;30.63;;;29.23;;
80115;SDS011;69423;47.608;19.366;2024-03-08T01:00:20;31.90;;;30.20;;
80115;SDS011;69423;47.608;19.366;2024-03-08T01:00:51;33.43;;;31.27;;
80115;SDS011;69423;47.608;19.366;2024-03-08T01:01:22;33.93;;;31.73;;
80115;SDS011;69423;47.608;19.366;2024-03-08T01:01:55;33.73;;;31.60;;
80115;SDS011;69423;47.608;19.366;2024-03-08T01:02:27;34.70;;;32.27;;
80115;SDS011;69423;47.608;19.366;2024-03-08T01:02:58;34.90;;;32.33;;
80115;SDS011;69423;47.608;19.366;2024-03-08T01:03:30;34.17;;;31.97;;
80115;SDS011;69423;47.608;19.366;2024-03-08T01:04:05;33.90;;;31.73;;
80115;SDS011;69423;47.608;19.366;2024-03-08T01:04:36;34.10;;;32.23;;
80115;SDS011;69423;47.608;19.366;2024-03-08T01:05:07;33.67;;;31.93;;
80115;SDS011;69423;47.608;19.366;2024-03-08T01:05:39;33.57;;;31.67;;
80115;SDS011;69423;47.608;19.366;2024-03-08T01:06:10;34.73;;;32.53;;
80115;SDS011;69423;47.608;19.366;2024-03-08T01:06:42;33.67;;;31.60;;
80115;SDS011;69423;47.608;19.366;2024-03-08T01:07:16;32.70;;;30.80;;
80115;SDS011;69423;47.608;19.366;2024-03-08T01:07:47;34.17;;;32.00;;
80115;SDS011;69423;47.608;19.366;2024-03-08T01:08:18;34.20;;;32.07;;
80115;SDS011;69423;47.608;19.366;2024-03-08T01:08:49;33.63;;;31.63;;
80115;SDS011;69423;47.608;19.366;2024-03-08T01:09:23;34.43;;;32.50;;
80115;SDS011;69423;47.608;19.366;2024-03-08T01:09:57;35.20;;;33.23;;
80115;SDS011;69423;47.608;19.366;2024-03-08T01:10:28;34.93;;;33.00;;
80115;SDS011;69423;47.608;19.366;2024-03-08T01:10:59;33.20;;;31.30;;
80115;SDS011;69423;47.608;19.366;2024-03-08T01:11:30;32.50;;;30.90;;
80115;SDS011;69423;47.608;19.366;2024-03-08T01:12:01;33.57;;;31.87;;
80115;SDS011;69423;47.608;19.366;2024-03-08T01:12:32;33.97;;;31.77;;
80115;SDS011;69423;47.608;19.366;2024-03-08T01:13:03;33.73;;;31.67;;
80115;SDS011;69423;47.608;19.366;2024-03-08T01:13:34;33.93;;;31.77;;
80115;SDS011;69423;47.608;19.366;2024-03-08T01:14:05;35.80;;;33.27;;
80115;SDS011;69423;47.608;19.366;2024-03-08T01:14:37;34.30;;;32.30;;
80115;SDS011;69423;47.608;19.366;2024-03-08T01:15:09;33.53;;;31.80;;
80115;SDS011;69423;47.608;19.366;2024-03-08T01:15:40;33.83;;;31.90;;
80115;SDS011;69423;47.608;19.366;2024-03-08T01:16:12;35.63;;;33.17;;
80115;SDS011;69423;47.608;19.366;2024-03-08T01:16:43;35.03;;;32.83;;
80115;SDS011;69423;47.608;19.366;2024-03-08T01:17:14;34.77;;;32.57;;
80115;SDS011;69423;47.608;19.366;2024-03-08T01:17:45;35.10;;;32.73;;
80115;SDS011;69423;47.608;19.366;2024-03-08T01:18:17;36.30;;;33.43;;
80115;SDS011;69423;47.608;19.366;2024-03-08T01:18:48;35.97;;;33.00;;
80115;SDS011;69423;47.608;19.366;2024-03-08T01:19:19;35.60;;;32.87;;
80115;SDS011;69423;47.608;19.366;2024-03-08T01:19:50;36.17;;;33.50;;
80115;SDS011;69423;47.608;19.366;2024-03-08T01:20:21;34.67;;;32.13;;
80115;SDS011;69423;47.608;19.366;2024-03-08T01:20:52;35.33;;;32.70;;
80115;SDS011;69423;47.608;19.366;2024-03-08T01:21:23;36.33;;;33.73;;
80115;SDS011;69423;47.608;19.366;2024-03-08T01:21:54;36.73;;;34.23;;
80115;SDS011;69423;47.608;19.366;2024-03-08T01:22:27;35.47;;;33.13;;
80115;SDS011;69423;47.608;19.366;2024-03-08T01:23:00;35.17;;;32.67;;
80115;SDS011;69423;47.608;19.366;2024-03-08T01:23:31;36.10;;;33.10;;
80115;SDS011;69423;47.608;19.366;2024-03-08T01:24:02;34.93;;;32.63;;
80115;SDS011;69423;47.608;19.366;2024-03-08T01:24:33;34.17;;;32.33;;
80115;SDS011;69423;47.608;19.366;2024-03-08T01:25:05;35.57;;;33.17;;
80115;SDS011;69423;47.608;19.366;2024-03-08T01:25:36;36.23;;;33.70;;
80115;SDS011;69423;47.608;19.366;2024-03-08T01:26:07;35.77;;;33.33;;
80115;SDS011;69423;47.608;19.366;2024-03-08T01:26:38;36.77;;;34.37;;
80115;SDS011;69423;47.608;19.366;2024-03-08T01:27:09;35.03;;;33.17;;
80115;SDS011;69423;47.608;19.366;2024-03-08T01:27:40;35.40;;;33.50;;
80115;SDS011;69423;47.608;19.366;2024-03-08T01:28:11;33.67;;;31.73;;
80115;SDS011;69423;47.608;19.366;2024-03-08T01:28:43;35.87;;;33.33;;
80115;SDS011;69423;47.608;19.366;2024-03-08T01:29:14;36.23;;;33.60;;
80115;SDS011;69423;47.608;19.366;2024-03-08T01:29:45;35.57;;;33.03;;
80115;SDS011;69423;47.608;19.366;2024-03-08T01:30:16;34.87;;;32.53;;
80115;SDS011;69423;47.608;19.366;2024-03-08T01:30:47;35.23;;;33.13;;
80115;SDS011;69423;47.608;19.366;2024-03-08T01:31:20;36.20;;;33.53;;
80115;SDS011;69423;47.608;19.366;2024-03-08T01:31:51;37.43;;;34.50;;
80115;SDS011;69423;47.608;19.366;2024-03-08T01:32:23;37.60;;;34.73;;
80115;SDS011;69423;47.608;19.366;2024-03-08T01:32:54;38.10;;;35.03;;
80115;SDS011;69423;47.608;19.366;2024-03-08T01:33:26;36.63;;;33.97;;
80115;SDS011;69423;47.608;19.366;2024-03-08T01:33:58;36.10;;;33.67;;
80115;SDS011;69423;47.608;19.366;2024-03-08T01:34:29;37.03;;;34.43;;
80115;SDS011;69423;47.608;19.366;2024-03-08T01:35:00;39.00;;;36.00;;
80115;SDS011;69423;47.608;19.366;2024-03-08T01:35:33;38.13;;;34.90;;
80115;SDS011;69423;47.608;19.366;2024-03-08T01:36:05;38.10;;;35.13;;
80115;SDS011;69423;47.608;19.366;2024-03-08T01:36:36;36.70;;;34.60;;
80115;SDS011;69423;47.608;19.366;2024-03-08T01:37:07;37.30;;;35.20;;
80115;SDS011;69423;47.608;19.366;2024-03-08T01:37:38;37.53;;;35.00;;
80115;SDS011;69423;47.608;19.366;2024-03-08T01:38:09;37.10;;;34.70;;
80115;SDS011;69423;47.608;19.366;2024-03-08T01:38:41;37.50;;;35.23;;
80115;SDS011;69423;47.608;19.366;2024-03-08T01:39:13;40.00;;;37.03;;
80115;SDS011;69423;47.608;19.366;2024-03-08T01:39:44;38.97;;;35.97;;
80115;SDS011;69423;47.608;19.366;2024-03-08T01:40:15;39.40;;;36.53;;
80115;SDS011;69423;47.608;19.366;2024-03-08T01:40:47;39.47;;;36.73;;
80115;SDS011;69423;47.608;19.366;2024-03-08T01:41:18;39.13;;;36.30;;
80115;SDS011;69423;47.608;19.366;2024-03-08T01:41:50;39.17;;;36.37;;
80115;SDS011;69423;47.608;19.366;2024-03-08T01:42:21;39.47;;;36.50;;
80115;SDS011;69423;47.608;19.366;2024-03-08T01:42:52;39.63;;;36.70;;
80115;SDS011;69423;47.608;19.366;2024-03-08T01:43:27;40.13;;;37.70;;
80115;SDS011;69423;47.608;19.366;2024-03-08T01:43:59;38.83;;;36.40;;
80115;SDS011;69423;47.608;19.366;2024-03-08T01:44:30;39.00;;;36.37;;
80115;SDS011;69423;47.608;19.366;2024-03-08T01:45:01;40.73;;;37.53;;
80115;SDS011;69423;47.608;19.366;2024-03-08T01:45:33;41.93;;;38.57;;
80115;SDS011;69423;47.608;19.366;2024-03-08T01:46:05;41.73;;;38.77;;
80115;SDS011;69423;47.608;19.366;2024-03-08T01:46:39;39.80;;;37.43;;
80115;SDS011;69423;47.608;19.366;2024-03-08T01:47:10;39.80;;;37.37;;
80115;SDS011;69423;47.608;19.366;2024-03-08T01:47:42;39.90;;;37.00;;
80115;SDS011;69423;47.608;19.366;2024-03-08T01:48:14;42.60;;;39.03;;
80115;SDS011;69423;47.608;19.366;2024-03-08T01:48:47;42.83;;;39.33;;
80115;SDS011;69423;47.608;19.366;2024-03-08T01:49:21;39.67;;;36.70;;
80115;SDS011;69423;47.608;19.366;2024-03-08T01:49:52;41.67;;;38.17;;
80115;SDS011;69423;47.608;19.366;2024-03-08T01:50:24;41.30;;;37.90;;
80115;SDS011;69423;47.608;19.366;2024-03-08T01:50:55;39.57;;;36.50;;
80115;SDS011;69423;47.608;19.366;2024-03-08T01:51:28;41.77;;;38.93;;
80115;SDS011;69423;47.608;19.366;2024-03-08T01:52:01;43.17;;;39.37;;
80115;SDS011;69423;47.608;19.366;2024-03-08T01:52:32;44.47;;;40.40;;
80115;SDS011;69423;47.608;19.366;2024-03-08T01:53:05;44.70;;;40.50;;
80115;SDS011;69423;47.608;19.366;2024-03-08T01:53:38;42.27;;;38.83;;
80115;SDS011;69423;47.608;19.366;2024-03-08T01:54:10;41.80;;;38.57;;
80115;SDS011;69423;47.608;19.366;2024-03-08T01:54:41;43.97;;;39.80;;
80115;SDS011;69423;47.608;19.366;2024-03-08T01:55:13;43.13;;;38.87;;
80115;SDS011;69423;47.608;19.366;2024-03-08T01:55:45;42.47;;;39.00;;
80115;SDS011;69423;47.608;19.366;2024-03-08T01:56:18;45.30;;;41.13;;
80115;SDS011;69423;47.608;19.366;2024-03-08T01:56:50;43.37;;;39.60;;
80115;SDS011;69423;47.608;19.366;2024-03-08T01:57:21;42.13;;;39.00;;
80115;SDS011;69423;47.608;19.366;2024-03-08T01:57:52;43.57;;;40.03;;
80115;SDS011;69423;47.608;19.366;2024-03-08T01:58:24;43.93;;;39.97;;
80115;SDS011;69423;47.608;19.366;2024-03-08T01:58:59;42.23;;;38.47;;
80115;SDS011;69423;47.608;19.366;2024-03-08T01:59:31;41.77;;;38.30;;
80115;SDS011;69423;47.608;19.366;2024-03-08T02:00:02;42.60;;;39.10;;
80115;SDS011;69423;47.608;19.366;2024-03-08T02:00:34;43.87;;;40.03;;
80115;SDS011;69423;47.608;19.366;2024-03-08T02:01:07;42.57;;;38.93;;
80115;SDS011;69423;47.608;19.366;2024-03-08T02:01:39;42.20;;;38.60;;
80115;SDS011;69423;47.608;19.366;2024-03-08T02:02:11;43.63;;;39.50;;
80115;SDS011;69423;47.608;19.366;2024-03-08T02:02:47;42.27;;;38.83;;
80115;SDS011;69423;47.608;19.366;2024-03-08T02:03:21;43.33;;;39.87;;
80115;SDS011;69423;47.608;19.366;2024-03-08T02:03:53;44.83;;;40.73;;
80115;SDS011;69423;47.608;19.366;2024-03-08T02:04:24;45.03;;;40.57;;
80115;SDS011;69423;47.608;19.366;2024-03-08T02:04:55;46.73;;;41.97;;
80115;SDS011;69423;47.608;19.366;2024-03-08T02:05:26;45.00;;;40.80;;
80115;SDS011;69423;47.608;19.366;2024-03-08T02:05:58;43.87;;;40.63;;
80115;SDS011;69423;47.608;19.366;2024-03-08T02:06:32;43.37;;;40.37;;
80115;SDS011;69423;47.608;19.366;2024-03-08T02:07:03;42.63;;;39.27;;
80115;SDS011;69423;47.608;19.366;2024-03-08T02:07:36;44.10;;;40.13;;
80115;SDS011;69423;47.608;19.366;2024-03-08T02:08:07;45.27;;;41.00;;
80115;SDS011;69423;47.608;19.366;2024-03-08T02:08:43;43.83;;;40.17;;
80115;SDS011;69423;47.608;19.366;2024-03-08T02:09:15;42.47;;;39.27;;
80115;SDS011;69423;47.608;19.366;2024-03-08T02:09:47;42.67;;;39.27;;
80115;SDS011;69423;47.608;19.366;2024-03-08T02:10:18;43.13;;;39.63;;
80115;SDS011;69423;47.608;19.366;2024-03-08T02:10:49;43.67;;;40.33;;
80115;SDS011;69423;47.608;19.366;2024-03-08T02:11:20;43.20;;;40.17;;
80115;SDS011;69423;47.608;19.366;2024-03-08T02:11:51;45.33;;;41.77;;
80115;SDS011;69423;47.608;19.366;2024-03-08T02:12:22;42.10;;;38.63;;
80115;SDS011;69423;47.608;19.366;2024-03-08T02:12:53;42.53;;;39.10;;
80115;SDS011;69423;47.608;19.366;2024-03-08T02:13:25;42.10;;;38.87;;
80115;SDS011;69423;47.608;19.366;2024-03-08T02:13:57;44.20;;;40.37;;
80115;SDS011;69423;47.608;19.366;2024-03-08T02:14:28;44.37;;;40.50;;
80115;SDS011;69423;47.608;19.366;2024-03-08T02:15:01;44.17;;;40.13;;
80115;SDS011;69423;47.608;19.366;2024-03-08T02:16:25;42.80;;;39.23;;
80115;SDS011;69423;47.608;19.366;2024-03-08T02:16:59;44.03;;;40.40;;
80115;SDS011;69423;47.608;19.366;2024-03-08T02:17:31;45.03;;;40.63;;
80115;SDS011;69423;47.608;19.366;2024-03-08T02:18:03;45.30;;;40.83;;
80115;SDS011;69423;47.608;19.366;2024-03-08T02:18:35;44.60;;;40.47;;
80115;SDS011;69423;47.608;19.366;2024-03-08T02:19:06;43.67;;;39.53;;
80115;SDS011;69423;47.608;19.366;2024-03-08T02:19:40;43.63;;;39.97;;
80115;SDS011;69423;47.608;19.366;2024-03-08T02:20:11;44.23;;;40.33;;
80115;SDS011;69423;47.608;19.366;2024-03-08T02:20:44;44.93;;;40.87;;
80115;SDS011;69423;47.608;19.366;2024-03-08T02:21:18;43.47;;;39.93;;
80115;SDS011;69423;47.608;19.366;2024-03-08T02:21:49;42.33;;;39.20;;
80115;SDS011;69423;47.608;19.366;2024-03-08T02:22:20;43.63;;;39.77;;
80115;SDS011;69423;47.608;19.366;2024-03-08T02:22:51;42.27;;;38.90;;
80115;SDS011;69423;47.608;19.366;2024-03-08T02:23:22;43.27;;;40.00;;
80115;SDS011;69423;47.608;19.366;2024-03-08T02:23:57;45.03;;;40.93;;
80115;SDS011;69423;47.608;19.366;2024-03-08T02:24:28;44.97;;;40.93;;
80115;SDS011;69423;47.608;19.366;2024-03-08T02:24:59;43.43;;;39.87;;
80115;SDS011;69423;47.608;19.366;2024-03-08T02:25:34;42.93;;;39.57;;
80115;SDS011;69423;47.608;19.366;2024-03-08T02:26:06;42.47;;;39.17;;
80115;SDS011;69423;47.608;19.366;2024-03-08T02:26:37;45.13;;;40.90;;
80115;SDS011;69423;47.608;19.366;2024-03-08T02:27:08;44.60;;;40.37;;
80115;SDS011;69423;47.608;19.366;2024-03-08T02:27:42;43.67;;;40.40;;
80115;SDS011;69423;47.608;19.366;2024-03-08T02:28:13;42.67;;;39.20;;
80115;SDS011;69423;47.608;19.366;2024-03-08T02:28:45;41.33;;;38.27;;
80115;SDS011;69423;47.608;19.366;2024-03-08T02:29:17;41.23;;;38.43;;
80115;SDS011;69423;47.608;19.366;2024-03-08T02:29:48;43.10;;;39.53;;
80115;SDS011;69423;47.608;19.366;2024-03-08T02:30:20;44.37;;;40.60;;
80115;SDS011;69423;47.608;19.366;2024-03-08T02:30:51;44.73;;;40.83;;
80115;SDS011;69423;47.608;19.366;2024-03-08T02:31:26;44.37;;;40.57;;
80115;SDS011;69423;47.608;19.366;2024-03-08T02:31:57;44.87;;;41.07;;
80115;SDS011;69423;47.608;19.366;2024-03-08T02:32:28;45.70;;;41.67;;
80115;SDS011;69423;47.608;19.366;2024-03-08T02:33:00;43.77;;;40.03;;
80115;SDS011;69423;47.608;19.366;2024-03-08T02:33:31;41.47;;;38.77;;
80115;SDS011;69423;47.608;19.366;2024-03-08T02:34:03;44.23;;;40.93;;
80115;SDS011;69423;47.608;19.366;2024-03-08T02:34:35;46.17;;;41.80;;
80115;SDS011;69423;47.608;19.366;2024-03-08T02:35:06;43.70;;;39.90;;
80115;SDS011;69423;47.608;19.366;2024-03-08T02:35:37;44.37;;;40.27;;
80115;SDS011;69423;47.608;19.366;2024-03-08T02:36:08;42.57;;;39.30;;
80115;SDS011;69423;47.608;19.366;2024-03-08T02:36:40;42.37;;;39.30;;
80115;SDS011;69423;47.608;19.366;2024-03-08T02:37:11;40.37;;;37.77;;
80115;SDS011;69423;47.608;19.366;2024-03-08T02:37:42;41.80;;;38.93;;
80115;SDS011;69423;47.608;19.366;2024-03-08T02:38:19;41.30;;;38.57;;
80115;SDS011;69423;47.608;19.366;2024-03-08T02:38:51;44.17;;;40.50;;
80115;SDS011;69423;47.608;19.366;2024-03-08T02:39:22;44.97;;;40.67;;
80115;SDS011;69423;47.608;19.366;2024-03-08T02:39:54;43.00;;;39.40;;
80115;SDS011;69423;47.608;19.366;2024-03-08T02:40:25;42.73;;;39.47;;
80115;SDS011;69423;47.608;19.366;2024-03-08T02:40:56;40.67;;;37.80;;
80115;SDS011;69423;47.608;19.366;2024-03-08T02:41:27;42.37;;;38.90;;
80115;SDS011;69423;47.608;19.366;2024-03-08T02:41:58;44.93;;;40.93;;
80115;SDS011;69423;47.608;19.366;2024-03-08T02:42:29;44.67;;;40.80;;
80115;SDS011;69423;47.608;19.366;2024-03-08T02:43:00;44.93;;;41.17;;
80115;SDS011;69423;47.608;19.366;2024-03-08T02:43:31;44.20;;;40.43;;
80115;SDS011;69423;47.608;19.366;2024-03-08T02:44:02;43.37;;;39.63;;
80115;SDS011;69423;47.608;19.366;2024-03-08T02:44:34;43.67;;;40.10;;
80115;SDS011;69423;47.608;19.366;2024-03-08T02:45:05;43.17;;;39.70;;
80115;SDS011;69423;47.608;19.366;2024-03-08T02:45:37;42.93;;;39.63;;
80115;SDS011;69423;47.608;19.366;2024-03-08T02:46:08;42.27;;;38.63;;
80115;SDS011;69423;47.608;19.366;2024-03-08T02:46:39;43.03;;;38.93;;
80115;SDS011;69423;47.608;19.366;2024-03-08T02:47:10;44.33;;;40.13;;
80115;SDS011;69423;47.608;19.366;2024-03-08T02:47:41;45.53;;;41.33;;
80115;SDS011;69423;47.608;19.366;2024-03-08T02:48:12;44.17;;;40.30;;
80115;SDS011;69423;47.608;19.366;2024-03-08T02:48:44;43.63;;;39.93;;
80115;SDS011;69423;47.608;19.366;2024-03-08T02:49:15;42.70;;;39.57;;
80115;SDS011;69423;47.608;19.366;2024-03-08T02:49:46;42.50;;;39.50;;
80115;SDS011;69423;47.608;19.366;2024-03-08T02:50:17;40.53;;;38.00;;
80115;SDS011;69423;47.608;19.366;2024-03-08T02:50:48;41.03;;;38.20;;
80115;SDS011;69423;47.608;19.366;2024-03-08T02:51:21;43.30;;;39.83;;
80115;SDS011;69423;47.608;19.366;2024-03-08T02:51:52;42.37;;;38.70;;
80115;SDS011;69423;47.608;19.366;2024-03-08T02:52:24;43.83;;;39.97;;
80115;SDS011;69423;47.608;19.366;2024-03-08T02:52:55;44.13;;;40.20;;
80115;SDS011;69423;47.608;19.366;2024-03-08T02:53:26;45.03;;;41.10;;
80115;SDS011;69423;47.608;19.366;2024-03-08T02:53:58;43.83;;;40.20;;
80115;SDS011;69423;47.608;19.366;2024-03-08T02:54:29;44.20;;;39.93;;
80115;SDS011;69423;47.608;19.366;2024-03-08T02:55:00;46.33;;;41.63;;
80115;SDS011;69423;47.608;19.366;2024-03-08T02:55:31;44.83;;;40.90;;
80115;SDS011;69423;47.608;19.366;2024-03-08T02:56:04;42.10;;;39.03;;
80115;SDS011;69423;47.608;19.366;2024-03-08T02:56:38;42.43;;;39.40;;
80115;SDS011;69423;47.608;19.366;2024-03-08T02:57:10;40.70;;;37.93;;
80115;SDS011;69423;47.608;19.366;2024-03-08T02:57:41;42.03;;;38.90;;
80115;SDS011;69423;47.608;19.366;2024-03-08T02:58:12;42.47;;;39.40;;
80115;SDS011;69423;47.608;19.366;2024-03-08T02:58:45;42.57;;;39.63;;
80115;SDS011;69423;47.608;19.366;2024-03-08T02:59:19;43.93;;;40.43;;
80115;SDS011;69423;47.608;19.366;2024-03-08T02:59:50;44.47;;;40.80;;
80115;SDS011;69423;47.608;19.366;2024-03-08T03:00:21;44.53;;;40.30;;
80115;SDS011;69423;47.608;19.366;2024-03-08T03:00:53;44.90;;;41.03;;
80115;SDS011;69423;47.608;19.366;2024-03-08T03:01:25;45.77;;;41.60;;
80115;SDS011;69423;47.608;19.366;2024-03-08T03:01:56;45.70;;;41.33;;
80115;SDS011;69423;47.608;19.366;2024-03-08T03:02:28;44.63;;;40.57;;
80115;SDS011;69423;47.608;19.366;2024-03-08T03:02:59;43.83;;;40.40;;
80115;SDS011;69423;47.608;19.366;2024-03-08T03:03:33;44.73;;;41.13;;